Time,TemperatureF,DewpointF,PressureIn,WindDirection,WindDirectionDegrees,WindSpeedMPH,WindSpeedGustMPH,Humidity,HourlyPrecipIn,Conditions,Clouds,dailyrainin,SoftwareType,DateUTC
2013-07-07 00:05:00,73.6,68.8,29.98,NE,45,3.1,4.5,85,0.00,,,0.00,pywws,2013-07-06 14:05:00,
2013-07-07 00:15:00,73.4,68.6,29.98,NE,45,3.1,5.4,85,0.00,,,0.00,pywws,2013-07-06 14:15:00,
2013-07-07 00:25:00,73.9,68.8,29.98,NE,45,4.5,6.9,84,0.00,,,0.00,pywws,2013-07-06 14:25:00,
2013-07-07 00:35:00,74.3,68.8,29.98,NNE,22,3.1,4.5,83,0.00,,,0.00,pywws,2013-07-06 14:35:00,
2013-07-07 00:45:00,73.9,68.8,29.98,East,90,3.1,5.4,84,0.00,,,0.00,pywws,2013-07-06 14:45:00,
2013-07-07 00:55:00,74.3,68.8,29.97,NE,45,2.2,6.0,83,0.00,,,0.00,pywws,2013-07-06 14:55:00,
2013-07-07 01:05:00,74.7,68.8,29.97,South,180,2.2,5.4,82,0.00,,,0.00,pywws,2013-07-06 15:05:00,
2013-07-07 01:15:00,74.8,69.0,29.97,NE,45,3.1,6.0,82,0.00,,,0.00,pywws,2013-07-06 15:15:00,
2013-07-07 01:25:00,74.7,68.8,29.97,NE,45,1.6,3.1,82,0.00,,,0.00,pywws,2013-07-06 15:25:00,
2013-07-07 01:35:00,74.3,68.8,29.97,North,0,3.1,4.5,83,0.00,,,0.00,pywws,2013-07-06 15:35:00,
2013-07-07 01:45:00,74.3,69.1,29.97,North,0,3.1,4.5,84,0.00,,,0.00,pywws,2013-07-06 15:45:00,
2013-07-07 01:55:00,73.8,69.0,29.97,North,0,1.6,4.5,85,0.00,,,0.00,pywws,2013-07-06 15:55:00,
2013-07-07 02:05:00,74.1,69.0,29.97,NE,45,2.2,3.8,84,0.00,,,0.00,pywws,2013-07-06 16:05:00,
2013-07-07 02:15:00,74.1,69.0,29.97,NE,45,3.8,9.8,84,0.00,,,0.00,pywws,2013-07-06 16:15:00,
2013-07-07 02:26:00,73.6,68.8,29.96,North,0,3.8,5.4,85,0.00,,,0.00,pywws,2013-07-06 16:26:00,
2013-07-07 02:35:00,73.8,69.0,29.96,NE,45,5.4,7.6,85,0.00,,,0.00,pywws,2013-07-06 16:35:00,
2013-07-07 02:46:00,73.8,69.0,29.96,NE,45,2.2,5.4,85,0.00,,,0.00,pywws,2013-07-06 16:46:00,
2013-07-07 02:55:00,72.9,68.4,29.96,SW,225,0.7,2.2,86,0.00,,,0.00,pywws,2013-07-06 16:55:00,
2013-07-07 03:05:00,72.5,68.4,29.96,North,0,0.7,2.2,87,0.00,,,0.00,pywws,2013-07-06 17:05:00,
2013-07-07 03:15:00,72.9,68.8,29.95,NE,45,1.6,3.1,87,0.00,,,0.00,pywws,2013-07-06 17:15:00,
2013-07-07 03:25:00,72.9,68.8,29.96,NE,45,0.0,0.7,87,0.00,,,0.00,pywws,2013-07-06 17:25:00,
2013-07-07 03:35:00,72.7,68.9,29.96,South,180,0.0,0.7,88,0.00,,,0.00,pywws,2013-07-06 17:35:00,
2013-07-07 03:45:00,72.5,68.7,29.96,SE,135,0.0,0.7,88,0.00,,,0.00,pywws,2013-07-06 17:45:00,
2013-07-07 03:55:00,72.1,69.0,29.96,NE,45,0.0,0.7,90,0.00,,,0.00,pywws,2013-07-06 17:55:00,
2013-07-07 04:05:00,72.1,69.0,29.96,North,0,0.7,2.2,90,0.00,,,0.00,pywws,2013-07-06 18:05:00,
2013-07-07 04:10:00,72.1,69.4,29.96,NE,45,0.0,1.6,91,0.00,,,0.00,pywws,2013-07-06 18:10:00,
2013-07-07 04:15:00,72.3,69.5,29.96,NW,315,0.0,0.7,91,0.00,,,0.00,pywws,2013-07-06 18:15:00,
2013-07-07 04:25:00,72.7,69.9,29.96,NE,45,0.0,0.7,91,0.00,,,0.00,pywws,2013-07-06 18:25:00,
2013-07-07 04:35:00,73.2,69.8,29.96,South,180,0.7,1.6,89,0.00,,,0.00,pywws,2013-07-06 18:35:00,
2013-07-07 04:47:00,73.4,69.6,29.96,NE,45,5.4,6.0,88,0.00,,,0.00,pywws,2013-07-06 18:47:00,
2013-07-07 04:55:00,73.4,69.6,29.95,NW,315,0.7,2.2,88,0.00,,,0.00,pywws,2013-07-06 18:55:00,
2013-07-07 05:05:00,74.3,69.8,29.96,NE,45,1.6,3.1,86,0.00,,,0.00,pywws,2013-07-06 19:05:00,
2013-07-07 05:15:00,74.7,69.8,29.96,NW,315,0.0,0.7,85,0.00,,,0.00,pywws,2013-07-06 19:15:00,
2013-07-07 05:26:00,74.8,70.0,29.96,NE,45,3.1,5.4,85,0.00,,,0.00,pywws,2013-07-06 19:26:00,
2013-07-07 05:35:00,74.3,69.8,29.96,SW,225,3.8,6.0,86,0.00,,,0.00,pywws,2013-07-06 19:35:00,
2013-07-07 05:46:00,74.1,70.0,29.96,SE,135,0.7,1.6,87,0.00,,,0.00,pywws,2013-07-06 19:46:00,
2013-07-07 05:55:00,74.7,70.2,29.97,NE,45,5.4,9.2,86,0.00,,,0.00,pywws,2013-07-06 19:55:00,
2013-07-07 06:05:00,74.7,70.2,29.97,East,90,3.8,6.0,86,0.00,,,0.00,pywws,2013-07-06 20:05:00,
2013-07-07 06:16:00,74.8,70.0,29.97,NE,45,3.1,3.8,85,0.00,,,0.00,pywws,2013-07-06 20:16:00,
2013-07-07 06:25:00,75.0,69.8,29.97,East,90,4.5,7.6,84,0.00,,,0.00,pywws,2013-07-06 20:25:00,
2013-07-07 06:36:00,75.0,69.8,29.98,NE,45,4.5,8.3,84,0.00,,,0.00,pywws,2013-07-06 20:36:00,
2013-07-07 06:45:00,75.0,69.8,29.98,NE,45,4.5,6.9,84,0.00,,,0.00,pywws,2013-07-06 20:45:00,
2013-07-07 06:55:00,75.2,69.7,29.99,North,0,4.5,6.9,83,0.00,,,0.00,pywws,2013-07-06 20:55:00,
2013-07-07 07:05:00,75.2,69.7,29.99,North,0,3.1,3.8,83,0.00,,,0.00,pywws,2013-07-06 21:05:00,
2013-07-07 07:15:00,75.4,69.8,30.00,NE,45,5.4,8.3,83,0.00,,,0.00,pywws,2013-07-06 21:15:00,
2013-07-07 07:25:00,75.6,69.7,30.00,NNW,338,5.4,8.3,82,0.00,,,0.00,pywws,2013-07-06 21:25:00,
2013-07-07 07:35:00,75.9,69.7,30.00,East,90,4.5,6.0,81,0.00,,,0.00,pywws,2013-07-06 21:35:00,
2013-07-07 07:45:00,75.9,69.7,30.01,NE,45,3.1,3.8,81,0.00,,,0.00,pywws,2013-07-06 21:45:00,
2013-07-07 07:55:00,77.4,70.3,30.01,NE,45,1.6,3.1,79,0.00,,,0.00,pywws,2013-07-06 21:55:00,
2013-07-07 08:05:00,79.3,70.3,30.01,NNW,338,3.8,6.0,74,0.00,,,0.00,pywws,2013-07-06 22:05:00,
2013-07-07 08:15:00,79.9,70.4,30.01,NE,45,4.5,7.6,73,0.00,,,0.00,pywws,2013-07-06 22:15:00,
2013-07-07 08:26:00,80.4,71.0,30.01,NE,45,4.5,6.0,73,0.00,,,0.00,pywws,2013-07-06 22:26:00,
2013-07-07 08:35:00,81.0,71.1,30.01,NE,45,5.4,7.6,72,0.00,,,0.00,pywws,2013-07-06 22:35:00,
2013-07-07 08:45:00,82.0,71.3,30.01,North,0,5.4,6.9,70,0.00,,,0.00,pywws,2013-07-06 22:45:00,
2013-07-07 08:56:00,83.1,71.0,30.01,NE,45,4.5,8.3,67,0.00,,,0.00,pywws,2013-07-06 22:56:00,
2013-07-07 09:05:00,83.7,71.5,30.01,North,0,1.6,3.8,67,0.00,,,0.00,pywws,2013-07-06 23:05:00,
2013-07-07 09:15:00,82.9,70.8,30.01,East,90,8.3,13.0,67,0.00,,,0.00,pywws,2013-07-06 23:15:00,
2013-07-07 09:25:00,81.3,70.6,30.02,NE,45,3.8,6.9,70,0.00,,,0.00,pywws,2013-07-06 23:25:00,
2013-07-07 09:35:00,81.1,70.4,30.02,NE,45,3.8,6.0,70,0.00,,,0.00,pywws,2013-07-06 23:35:00,
2013-07-07 09:48:00,82.4,70.8,30.01,NE,45,6.9,12.1,68,0.00,,,0.00,pywws,2013-07-06 23:48:00,
2013-07-07 09:55:00,81.1,70.8,30.02,NNE,22,5.4,6.9,71,0.00,,,0.00,pywws,2013-07-06 23:55:00,
2013-07-07 10:05:00,81.5,70.7,30.01,NE,45,6.9,8.3,70,0.00,,,0.00,pywws,2013-07-07 00:05:00,
2013-07-07 10:16:00,81.3,71.0,30.01,SE,135,3.1,5.4,71,0.00,,,0.00,pywws,2013-07-07 00:16:00,
2013-07-07 10:26:00,81.9,70.7,30.01,North,0,6.0,10.7,69,0.00,,,0.00,pywws,2013-07-07 00:26:00,
2013-07-07 10:36:00,82.4,70.3,30.01,NE,45,8.3,13.0,67,0.00,,,0.00,pywws,2013-07-07 00:36:00,
2013-07-07 10:46:00,82.0,70.4,30.01,NW,315,6.9,12.1,68,0.00,,,0.00,pywws,2013-07-07 00:46:00,
2013-07-07 10:55:00,82.2,70.6,30.01,NE,45,5.4,6.9,68,0.00,,,0.00,pywws,2013-07-07 00:55:00,
2013-07-07 11:05:00,82.6,70.0,30.00,West,270,4.5,6.9,66,0.00,,,0.00,pywws,2013-07-07 01:05:00,
2013-07-07 11:15:00,82.4,69.9,30.00,NE,45,4.5,6.9,66,0.00,,,0.00,pywws,2013-07-07 01:15:00,
2013-07-07 11:25:00,82.4,70.3,30.00,East,90,5.4,10.7,67,0.00,,,0.00,pywws,2013-07-07 01:25:00,
2013-07-07 11:35:00,84.0,71.0,29.99,NE,45,8.3,10.7,65,0.00,,,0.00,pywws,2013-07-07 01:35:00,
2013-07-07 11:46:00,84.9,70.9,29.98,North,0,6.0,9.2,63,0.00,,,0.00,pywws,2013-07-07 01:46:00,
2013-07-07 11:55:00,84.2,70.7,29.98,North,0,8.3,12.1,64,0.00,,,0.00,pywws,2013-07-07 01:55:00,
2013-07-07 12:05:00,84.2,70.2,29.98,NE,45,8.3,13.0,63,0.00,,,0.00,pywws,2013-07-07 02:05:00,
2013-07-07 12:15:00,85.5,70.0,29.97,SE,135,6.0,10.7,60,0.00,,,0.00,pywws,2013-07-07 02:15:00,
2013-07-07 12:25:00,86.4,71.3,29.97,East,90,6.9,13.6,61,0.00,,,0.00,pywws,2013-07-07 02:25:00,
2013-07-07 12:35:00,85.5,70.4,29.96,NE,45,6.0,9.8,61,0.00,,,0.00,pywws,2013-07-07 02:35:00,
2013-07-07 12:46:00,85.6,71.1,29.96,NE,45,7.6,14.5,62,0.00,,,0.00,pywws,2013-07-07 02:46:00,
2013-07-07 12:55:00,84.9,70.9,29.96,North,0,6.9,13.0,63,0.00,,,0.00,pywws,2013-07-07 02:55:00,
2013-07-07 13:06:00,84.9,70.4,29.96,North,0,5.4,8.3,62,0.00,,,0.00,pywws,2013-07-07 03:06:00,
2013-07-07 13:15:00,84.2,70.7,29.95,NE,45,8.3,10.7,64,0.00,,,0.00,pywws,2013-07-07 03:15:00,
2013-07-07 13:27:00,84.6,71.0,29.94,NE,45,5.4,7.6,64,0.00,,,0.00,pywws,2013-07-07 03:27:00,
2013-07-07 13:35:00,84.2,70.7,29.94,NE,45,6.0,10.7,64,0.00,,,0.00,pywws,2013-07-07 03:35:00,
2013-07-07 13:46:00,83.7,70.6,29.94,NE,45,5.4,7.6,65,0.00,,,0.00,pywws,2013-07-07 03:46:00,
2013-07-07 13:56:00,82.8,69.8,29.94,NE,45,6.0,9.8,65,0.00,,,0.00,pywws,2013-07-07 03:56:00,
2013-07-07 14:05:00,84.0,70.5,29.93,NE,45,6.9,10.7,64,0.00,,,0.00,pywws,2013-07-07 04:05:00,
2013-07-07 14:06:00,83.8,70.3,29.93,NE,45,7.6,12.1,64,0.00,,,0.00,pywws,2013-07-07 04:06:00,
2013-07-07 14:07:00,83.8,70.3,29.93,NE,45,5.4,9.2,64,0.00,,,0.00,pywws,2013-07-07 04:07:00,
2013-07-07 14:15:00,84.0,71.0,29.93,NNE,22,4.5,8.3,65,0.00,,,0.00,pywws,2013-07-07 04:15:00,
2013-07-07 14:25:00,84.0,70.5,29.93,NE,45,8.3,14.5,64,0.00,,,0.00,pywws,2013-07-07 04:25:00,
2013-07-07 14:35:00,82.6,70.0,29.93,NE,45,8.3,11.4,66,0.00,,,0.00,pywws,2013-07-07 04:35:00,
2013-07-07 14:45:00,81.7,69.2,29.93,North,0,4.5,12.1,66,0.00,,,0.00,pywws,2013-07-07 04:45:00,
2013-07-07 14:55:00,80.4,69.7,29.93,North,0,4.5,7.6,70,0.00,,,0.00,pywws,2013-07-07 04:55:00,
2013-07-07 15:05:00,80.2,70.4,29.93,NE,45,3.8,6.0,72,0.00,,,0.00,pywws,2013-07-07 05:05:00,
2013-07-07 15:15:00,82.0,69.5,29.93,NNE,22,6.0,9.8,66,0.00,,,0.00,pywws,2013-07-07 05:15:00,
2013-07-07 15:25:00,83.3,70.7,29.93,WNW,292,8.3,11.4,66,0.00,,,0.00,pywws,2013-07-07 05:25:00,
2013-07-07 15:35:00,82.0,69.5,29.93,NE,45,4.5,7.6,66,0.00,,,0.00,pywws,2013-07-07 05:35:00,
2013-07-07 15:45:00,81.9,69.8,29.93,North,0,6.0,10.7,67,0.00,,,0.00,pywws,2013-07-07 05:45:00,
2013-07-07 15:55:00,79.9,69.6,29.93,NE,45,4.5,6.9,71,0.00,,,0.00,pywws,2013-07-07 05:55:00,
2013-07-07 16:05:00,79.3,69.5,29.93,NE,45,3.1,4.5,72,0.00,,,0.00,pywws,2013-07-07 06:05:00,
2013-07-07 16:15:00,79.9,70.0,29.93,North,0,3.8,6.0,72,0.00,,,0.00,pywws,2013-07-07 06:15:00,
2013-07-07 16:25:00,78.6,69.2,29.94,East,90,4.5,7.6,73,0.00,,,0.00,pywws,2013-07-07 06:25:00,
2013-07-07 16:35:00,78.6,69.2,29.94,NE,45,7.6,16.8,73,0.00,,,0.00,pywws,2013-07-07 06:35:00,
2013-07-07 16:45:00,78.3,69.3,29.94,NE,45,7.6,8.3,74,0.00,,,0.00,pywws,2013-07-07 06:45:00,
2013-07-07 16:55:00,77.9,69.3,29.95,East,90,3.8,6.0,75,0.00,,,0.00,pywws,2013-07-07 06:55:00,
2013-07-07 17:05:00,77.5,69.0,29.95,NW,315,0.7,2.2,75,0.00,,,0.00,pywws,2013-07-07 07:05:00,
2013-07-07 17:15:00,77.4,68.8,29.95,NE,45,4.5,6.9,75,0.00,,,0.00,pywws,2013-07-07 07:15:00,
2013-07-07 17:25:00,77.0,68.5,29.96,NE,45,2.2,4.5,75,0.00,,,0.00,pywws,2013-07-07 07:25:00,
2013-07-07 17:35:00,76.8,68.7,29.96,NE,45,1.6,3.8,76,0.00,,,0.00,pywws,2013-07-07 07:35:00,
2013-07-07 17:45:00,76.3,68.1,29.97,NE,45,1.6,3.1,76,0.00,,,0.00,pywws,2013-07-07 07:45:00,
2013-07-07 17:55:00,75.9,68.2,29.97,North,0,4.5,8.3,77,0.00,,,0.00,pywws,2013-07-07 07:55:00,
2013-07-07 18:05:00,75.7,68.0,29.98,NW,315,6.0,8.3,77,0.00,,,0.00,pywws,2013-07-07 08:05:00,
2013-07-07 18:15:00,75.6,67.8,29.98,East,90,1.6,3.1,77,0.00,,,0.00,pywws,2013-07-07 08:15:00,
2013-07-07 18:25:00,75.4,68.0,29.98,NE,45,1.6,3.8,78,0.00,,,0.00,pywws,2013-07-07 08:25:00,
2013-07-07 18:35:00,75.4,68.0,29.99,East,90,5.4,8.3,78,0.00,,,0.00,pywws,2013-07-07 08:35:00,
2013-07-07 18:45:00,75.2,67.9,29.99,NE,45,3.8,6.9,78,0.00,,,0.00,pywws,2013-07-07 08:45:00,
2013-07-07 18:55:00,75.0,68.1,29.99,NE,45,4.5,7.6,79,0.00,,,0.00,pywws,2013-07-07 08:55:00,
2013-07-07 19:05:00,74.7,68.1,30.00,NE,45,6.0,7.6,80,0.00,,,0.00,pywws,2013-07-07 09:05:00,
2013-07-07 19:15:00,74.5,67.9,30.01,NE,45,7.6,13.0,80,0.00,,,0.00,pywws,2013-07-07 09:15:00,
2013-07-07 19:25:00,74.3,67.4,30.01,NE,45,5.4,6.9,79,0.00,,,0.00,pywws,2013-07-07 09:25:00,
2013-07-07 19:35:00,74.5,67.5,30.01,East,90,5.4,9.2,79,0.00,,,0.00,pywws,2013-07-07 09:35:00,
2013-07-07 19:45:00,74.3,67.0,30.01,NE,45,3.8,5.4,78,0.00,,,0.00,pywws,2013-07-07 09:45:00,
2013-07-07 19:55:00,74.3,67.0,30.02,NE,45,3.8,6.9,78,0.00,,,0.00,pywws,2013-07-07 09:55:00,
2013-07-07 20:05:00,74.1,66.8,30.03,NE,45,6.9,9.2,78,0.00,,,0.00,pywws,2013-07-07 10:05:00,
2013-07-07 20:15:00,73.9,66.6,30.03,NE,45,2.2,4.5,78,0.00,,,0.00,pywws,2013-07-07 10:15:00,
2013-07-07 20:25:00,74.1,66.4,30.03,NW,315,3.8,7.6,77,0.00,,,0.00,pywws,2013-07-07 10:25:00,
2013-07-07 20:35:00,73.9,66.3,30.03,NE,45,4.5,6.9,77,0.00,,,0.00,pywws,2013-07-07 10:35:00,
2013-07-07 20:45:00,73.9,66.3,30.03,NE,45,7.6,11.4,77,0.00,,,0.00,pywws,2013-07-07 10:45:00,
2013-07-07 20:55:00,73.8,66.5,30.04,NE,45,11.4,19.0,78,0.00,,,0.00,pywws,2013-07-07 10:55:00,
2013-07-07 21:05:00,73.6,66.3,30.04,NE,45,2.2,3.1,78,0.00,,,0.00,pywws,2013-07-07 11:05:00,
2013-07-07 21:15:00,73.6,66.3,30.04,NE,45,6.0,10.7,78,0.00,,,0.00,pywws,2013-07-07 11:15:00,
2013-07-07 21:25:00,73.4,66.1,30.04,North,0,5.4,8.3,78,0.00,,,0.00,pywws,2013-07-07 11:25:00,
2013-07-07 21:35:00,73.9,66.3,30.05,NNE,22,9.2,11.4,77,0.00,,,0.00,pywws,2013-07-07 11:35:00,
2013-07-07 21:45:00,73.9,65.9,30.05,NE,45,6.0,9.8,76,0.00,,,0.00,pywws,2013-07-07 11:45:00,
2013-07-07 21:55:00,73.9,65.9,30.06,North,0,6.0,11.4,76,0.00,,,0.00,pywws,2013-07-07 11:55:00,
2013-07-07 22:05:00,74.1,66.1,30.06,East,90,4.5,9.2,76,0.00,,,0.00,pywws,2013-07-07 12:05:00,
2013-07-07 22:15:00,74.3,66.2,30.06,NW,315,2.2,4.5,76,0.00,,,0.00,pywws,2013-07-07 12:15:00,
2013-07-07 22:25:00,74.3,65.8,30.06,North,0,7.6,10.7,75,0.00,,,0.00,pywws,2013-07-07 12:25:00,
2013-07-07 22:35:00,74.3,65.8,30.05,NE,45,2.2,5.4,75,0.00,,,0.00,pywws,2013-07-07 12:35:00,
2013-07-07 22:45:00,74.3,65.8,30.06,SW,225,3.8,7.6,75,0.00,,,0.00,pywws,2013-07-07 12:45:00,
2013-07-07 22:55:00,74.7,66.2,30.05,North,0,0.7,1.6,75,0.00,,,0.00,pywws,2013-07-07 12:55:00,
2013-07-07 23:05:00,74.7,66.2,30.05,NE,45,6.0,10.7,75,0.00,,,0.00,pywws,2013-07-07 13:05:00,
2013-07-07 23:15:00,74.3,65.8,30.05,North,0,6.0,10.7,75,0.00,,,0.00,pywws,2013-07-07 13:15:00,
2013-07-07 23:25:00,74.3,65.8,30.05,NE,45,4.5,6.9,75,0.00,,,0.00,pywws,2013-07-07 13:25:00,
2013-07-07 23:35:00,74.7,66.2,30.06,NE,45,6.0,9.8,75,0.00,,,0.00,pywws,2013-07-07 13:35:00,
2013-07-07 23:45:00,73.9,66.3,30.05,East,90,4.5,8.3,77,0.00,,,0.00,pywws,2013-07-07 13:45:00,
2013-07-07 23:55:00,73.9,66.6,30.04,NE,45,3.1,7.6,78,0.00,,,0.00,pywws,2013-07-07 13:55:00,